createdAt,value
2018-07-24T00:00:49.532Z,80.78
2018-07-24T00:01:49.536Z,81.16
2018-07-24T00:02:51.027Z,81.74
2018-07-24T00:03:49.527Z,81.70
2018-07-24T00:04:49.534Z,82.03
2018-07-24T00:05:49.532Z,80.74
2018-07-24T00:06:49.533Z,81.45
2018-07-24T00:07:49.540Z,81.51
2018-07-24T00:08:49.531Z,81.90
2018-07-24T00:09:49.528Z,81.99
2018-07-24T00:10:51.078Z,81.90
2018-07-24T00:11:49.532Z,81.90
2018-07-24T00:12:49.525Z,82.28
2018-07-24T00:13:49.526Z,81.22
2018-07-24T00:14:49.529Z,81.02
2018-07-24T00:15:49.536Z,79.87
2018-07-24T00:16:49.534Z,81.65
2018-07-24T00:17:49.530Z,82.38
2018-07-24T00:18:49.527Z,82.57
2018-07-24T00:19:49.533Z,82.09
2018-07-24T00:20:49.529Z,82.28
2018-07-24T00:21:49.530Z,81.51
2018-07-24T00:22:49.530Z,81.41
2018-07-24T00:23:49.528Z,82.18
2018-07-24T00:24:49.526Z,83.34
2018-07-24T00:25:49.535Z,83.15
2018-07-24T00:26:49.532Z,82.76
2018-07-24T00:27:49.533Z,83.63
2018-07-24T00:28:49.530Z,84.01
2018-07-24T00:29:49.532Z,84.31
2018-07-24T00:30:49.535Z,84.41
2018-07-24T00:31:49.544Z,84.36
2018-07-24T00:32:49.532Z,84.36
2018-07-24T00:33:49.527Z,85.33
2018-07-24T00:34:49.528Z,85.33
2018-07-24T00:35:49.527Z,85.52
2018-07-24T00:36:49.527Z,86.10
2018-07-24T00:37:49.526Z,86.48
2018-07-24T00:38:49.531Z,86.48
2018-07-24T00:39:54.049Z,86.68
2018-07-24T00:40:49.524Z,86.68
2018-07-24T00:41:49.528Z,86.48
2018-07-24T00:42:49.531Z,86.19
2018-07-24T00:43:49.526Z,86.77
2018-07-24T00:44:49.526Z,86.10
2018-07-24T00:45:49.530Z,86.58
2018-07-24T00:46:49.550Z,85.52
2018-07-24T00:47:49.528Z,86.19
2018-07-24T00:48:49.533Z,85.71
2018-07-24T00:49:49.528Z,85.42
2018-07-24T00:50:49.528Z,85.81
2018-07-24T00:51:49.542Z,85.71
2018-07-24T00:52:49.519Z,85.42
2018-07-24T00:53:49.528Z,83.11
2018-07-24T00:54:49.524Z,84.27
2018-07-24T00:55:49.535Z,83.98
2018-07-24T00:56:49.540Z,83.30
2018-07-24T00:57:49.524Z,82.38
2018-07-24T00:58:49.536Z,84.59
2018-07-24T00:59:49.525Z,84.41
2018-07-24T01:00:49.529Z,84.50
2018-07-24T01:01:49.544Z,84.79
2018-07-24T01:02:49.518Z,84.21
2018-07-24T01:03:49.532Z,82.86
2018-07-24T01:04:49.519Z,82.57
2018-07-24T01:05:49.539Z,83.53
2018-07-24T01:06:49.522Z,84.01
2018-07-24T01:07:49.539Z,83.69
2018-07-24T01:08:49.520Z,84.21
2018-07-24T01:09:49.515Z,84.17
2018-07-24T01:10:49.537Z,83.63
2018-07-24T01:11:49.514Z,83.73
2018-07-24T01:12:49.522Z,83.05
2018-07-24T01:13:49.528Z,83.44
2018-07-24T01:14:49.520Z,82.43
2018-07-24T01:15:49.515Z,82.38
2018-07-24T01:16:49.530Z,81.76
2018-07-24T01:17:49.510Z,82.57
2018-07-24T01:18:49.515Z,82.72
2018-07-24T01:19:49.509Z,82.24
2018-07-24T01:20:49.511Z,81.90
2018-07-24T01:21:49.509Z,82.43
2018-07-24T01:22:49.518Z,81.85
2018-07-24T01:23:49.509Z,82.05
2018-07-24T01:24:49.512Z,81.76
2018-07-24T01:25:49.508Z,81.37
2018-07-24T01:26:49.516Z,81.60
2018-07-24T01:27:49.506Z,82.72
2018-07-24T01:28:49.517Z,81.47
2018-07-24T01:29:49.510Z,81.99
2018-07-24T01:30:49.506Z,82.09
2018-07-24T01:31:49.508Z,81.47
2018-07-24T01:32:49.506Z,82.43
2018-07-24T01:33:49.506Z,83.40
2018-07-24T01:34:49.515Z,82.14
2018-07-24T01:35:49.505Z,81.47
2018-07-24T01:36:49.508Z,80.93
2018-07-24T01:37:49.503Z,82.24
2018-07-24T01:38:49.506Z,82.82
2018-07-24T01:39:49.505Z,82.96
2018-07-24T01:40:49.503Z,82.53
2018-07-24T01:41:49.505Z,82.28
2018-07-24T01:42:49.511Z,82.62
2018-07-24T01:43:49.511Z,83.15
2018-07-24T01:44:50.091Z,83.11
2018-07-24T01:45:49.500Z,83.34
2018-07-24T01:46:49.498Z,84.36
2018-07-24T01:47:49.500Z,85.33
2018-07-24T01:48:49.529Z,81.57
2018-07-24T01:49:49.528Z,82.82
2018-07-24T01:50:49.502Z,83.78
2018-07-24T01:51:49.497Z,84.46
2018-07-24T01:52:49.497Z,85.13
2018-07-24T01:53:49.497Z,85.81
2018-07-24T01:54:49.496Z,85.33
2018-07-24T01:55:49.496Z,85.77
2018-07-24T01:56:49.500Z,84.65
2018-07-24T01:57:49.492Z,85.67
2018-07-24T01:58:49.494Z,86.63
2018-07-24T01:59:49.489Z,85.67
2018-07-24T02:00:49.489Z,86.82
2018-07-24T02:01:49.489Z,85.38
2018-07-24T02:02:49.489Z,84.80
2018-07-24T02:03:49.488Z,85.86
2018-07-24T02:04:49.489Z,86.63
2018-07-24T02:05:49.488Z,84.32
2018-07-24T02:06:49.489Z,85.28
2018-07-24T02:07:49.492Z,86.63
2018-07-24T02:08:49.506Z,87.50
2018-07-24T02:09:49.484Z,84.52
2018-07-24T02:10:49.488Z,85.57
2018-07-24T02:11:49.483Z,87.21
2018-07-24T02:12:49.487Z,86.63
2018-07-24T02:13:49.484Z,87.88
2018-07-24T02:14:49.481Z,87.21
2018-07-24T02:15:49.483Z,87.26
2018-07-24T02:16:49.482Z,86.88
2018-07-24T02:17:49.477Z,87.30
2018-07-24T02:18:49.491Z,87.26
2018-07-24T02:19:49.481Z,88.42
2018-07-24T02:20:49.479Z,89.29
2018-07-24T02:21:49.475Z,89.96
2018-07-24T02:22:49.484Z,90.16
2018-07-24T02:23:49.476Z,90.54
2018-07-24T02:24:49.480Z,90.83
2018-07-24T02:25:49.480Z,91.12
2018-07-24T02:26:49.474Z,91.31
2018-07-24T02:27:49.487Z,90.73
2018-07-24T02:28:49.492Z,90.16
2018-07-24T02:29:49.475Z,89.29
2018-07-24T02:30:49.480Z,89.96
2018-07-24T02:31:49.498Z,89.96
2018-07-24T02:32:49.477Z,90.73
2018-07-24T02:33:49.473Z,89.77
2018-07-24T02:34:49.481Z,89.96
2018-07-24T02:35:49.469Z,91.21
2018-07-24T02:36:49.480Z,91.99
2018-07-24T02:37:49.465Z,92.13
2018-07-24T02:38:49.486Z,92.13
2018-07-24T02:39:49.479Z,92.52
2018-07-24T02:40:49.460Z,92.32
2018-07-24T02:41:49.462Z,93.29
2018-07-24T02:42:49.464Z,93.48
2018-07-24T02:43:49.466Z,94.15
2018-07-24T02:44:49.464Z,94.64
2018-07-24T02:45:49.462Z,94.25
2018-07-24T02:46:49.460Z,94.25
2018-07-24T02:47:49.473Z,95.26
2018-07-24T02:48:49.455Z,95.74
2018-07-24T02:49:49.462Z,95.40
2018-07-24T02:50:49.452Z,95.60
2018-07-24T02:51:49.459Z,95.79
2018-07-24T02:52:49.466Z,96.32
2018-07-24T02:53:49.476Z,96.08
2018-07-24T02:54:49.453Z,95.60
2018-07-24T02:55:49.461Z,96.32
2018-07-24T02:56:49.450Z,96.51
2018-07-24T02:57:49.452Z,96.89
2018-07-24T02:58:49.448Z,97.19
2018-07-24T02:59:49.456Z,96.22
2018-07-24T03:00:49.454Z,96.22
2018-07-24T03:01:49.447Z,96.51
2018-07-24T03:02:49.446Z,96.51
2018-07-24T03:03:49.448Z,95.26
2018-07-24T03:04:49.448Z,93.62
2018-07-24T03:05:49.459Z,94.10
2018-07-24T03:06:49.441Z,95.26
2018-07-24T03:07:49.441Z,95.07
2018-07-24T03:08:49.441Z,95.55
2018-07-24T03:09:49.443Z,95.17
2018-07-24T03:10:49.434Z,95.17
2018-07-24T03:11:49.435Z,94.01
2018-07-24T03:12:49.436Z,95.36
2018-07-24T03:13:49.436Z,96.17
2018-07-24T03:14:49.437Z,95.55
2018-07-24T03:15:49.429Z,96.37
2018-07-24T03:16:49.429Z,95.89
2018-07-24T03:17:49.431Z,96.75
2018-07-24T03:18:49.430Z,96.94
2018-07-24T03:19:49.427Z,96.47
2018-07-24T03:20:49.428Z,97.14
2018-07-24T03:21:49.424Z,97.33
2018-07-24T03:22:49.424Z,97.24
2018-07-24T03:23:49.429Z,97.62
2018-07-24T03:24:49.418Z,98.14
2018-07-24T03:25:49.426Z,97.86
2018-07-24T03:26:49.422Z,97.09
2018-07-24T03:27:49.416Z,98.14
2018-07-24T03:28:49.420Z,97.86
2018-07-24T03:29:49.426Z,97.86
2018-07-24T03:30:49.415Z,98.14
2018-07-24T03:31:50.160Z,98.72
2018-07-24T03:32:49.416Z,98.63
2018-07-24T03:33:49.434Z,99.01
2018-07-24T03:34:49.410Z,99.78
2018-07-24T03:35:49.413Z,99.68
2018-07-24T03:36:49.403Z,99.98
2018-07-24T03:37:49.405Z,99.88
2018-07-24T03:38:49.408Z,99.88
2018-07-24T03:39:49.405Z,99.88
2018-07-24T03:40:49.400Z,99.78
2018-07-24T03:41:49.408Z,99.99
2018-07-24T03:42:49.417Z,99.99
2018-07-24T03:43:49.401Z,99.99
2018-07-24T03:44:49.398Z,99.99
2018-07-24T03:45:49.392Z,99.99
2018-07-24T03:46:49.410Z,99.99
2018-07-24T03:47:49.395Z,99.99
2018-07-24T03:48:49.393Z,99.99
2018-07-24T03:49:49.387Z,99.99
2018-07-24T03:50:49.385Z,99.99
2018-07-24T03:51:49.386Z,99.99
2018-07-24T03:52:49.385Z,99.99
2018-07-24T03:53:49.384Z,99.99
2018-07-24T03:54:49.387Z,99.99
2018-07-24T03:55:49.384Z,99.99
2018-07-24T03:56:49.378Z,99.99
2018-07-24T03:57:49.427Z,99.99
2018-07-24T03:58:49.375Z,99.99
2018-07-24T03:59:49.374Z,99.44
2018-07-24T04:00:49.376Z,99.99
2018-07-24T04:01:49.367Z,99.99
2018-07-24T04:02:49.366Z,99.99
2018-07-24T04:03:49.389Z,99.99
2018-07-24T04:04:49.369Z,99.99
2018-07-24T04:05:49.369Z,99.88
2018-07-24T04:06:49.365Z,99.99
2018-07-24T04:07:49.365Z,99.99
2018-07-24T04:08:49.363Z,99.99
2018-07-24T04:09:49.374Z,99.99
2018-07-24T04:10:49.359Z,99.99
2018-07-24T04:11:49.359Z,99.78
2018-07-24T04:12:49.357Z,99.88
2018-07-24T04:13:49.353Z,99.78
2018-07-24T04:14:49.353Z,98.44
2018-07-24T04:15:49.354Z,99.01
2018-07-24T04:16:49.358Z,99.40
2018-07-24T04:17:49.353Z,99.78
2018-07-24T04:18:49.346Z,99.88
2018-07-24T04:19:49.346Z,99.98
2018-07-24T04:20:49.341Z,99.88
2018-07-24T04:21:49.340Z,99.99
2018-07-24T04:22:49.340Z,99.68
2018-07-24T04:23:49.341Z,99.88
2018-07-24T04:24:49.336Z,99.59
2018-07-24T04:25:49.335Z,99.88
2018-07-24T04:26:49.333Z,99.78
2018-07-24T04:27:49.329Z,99.30
2018-07-24T04:28:49.327Z,98.82
2018-07-24T04:29:49.331Z,97.09
2018-07-24T04:30:49.370Z,95.26
2018-07-24T04:31:49.329Z,95.45
2018-07-24T04:32:49.325Z,96.80
2018-07-24T04:33:49.350Z,96.61
2018-07-24T04:34:49.328Z,96.08
2018-07-24T04:35:49.324Z,95.70
2018-07-24T04:36:49.320Z,95.89
2018-07-24T04:37:49.319Z,95.31
2018-07-24T04:38:49.318Z,94.06
2018-07-24T04:39:49.362Z,92.91
2018-07-24T04:40:49.315Z,93.96
2018-07-24T04:41:49.317Z,94.73
2018-07-24T04:42:49.317Z,94.45
2018-07-24T04:43:49.307Z,96.08
2018-07-24T04:44:51.197Z,93.96
2018-07-24T04:45:49.301Z,96.08
2018-07-24T04:46:49.300Z,96.47
2018-07-24T04:47:49.307Z,95.12
2018-07-24T04:48:49.314Z,94.20
2018-07-24T04:49:49.298Z,95.07
2018-07-24T04:50:49.310Z,95.55
2018-07-24T04:51:49.297Z,93.72
2018-07-24T04:52:49.295Z,94.78
2018-07-24T04:53:49.295Z,94.97
2018-07-24T04:54:49.294Z,94.97
2018-07-24T04:55:49.293Z,95.26
2018-07-24T04:56:49.289Z,95.21
2018-07-24T04:57:49.288Z,95.02
2018-07-24T04:58:49.291Z,94.15
2018-07-24T04:59:49.285Z,92.61
2018-07-24T05:00:49.286Z,94.06
2018-07-24T05:01:49.291Z,93.00
2018-07-24T05:02:49.281Z,92.27
2018-07-24T05:03:49.280Z,90.64
2018-07-24T05:04:49.284Z,91.89
2018-07-24T05:05:49.282Z,90.44
2018-07-24T05:06:49.275Z,90.25
2018-07-24T05:07:49.275Z,88.61
2018-07-24T05:08:49.279Z,87.84
2018-07-24T05:09:49.289Z,87.12
2018-07-24T05:10:49.276Z,86.15
2018-07-24T05:11:49.273Z,86.25
2018-07-24T05:12:49.275Z,85.67
2018-07-24T05:13:49.268Z,84.99
2018-07-24T05:14:49.270Z,84.27
2018-07-24T05:15:49.273Z,84.46
2018-07-24T05:16:49.300Z,84.65
2018-07-24T05:17:49.275Z,84.07
2018-07-24T05:18:49.266Z,84.36
2018-07-24T05:19:49.275Z,84.31
2018-07-24T05:20:49.269Z,84.11
2018-07-24T05:21:49.269Z,82.57
2018-07-24T05:22:49.280Z,82.38
2018-07-24T05:23:49.294Z,83.48
2018-07-24T05:24:49.272Z,81.65
2018-07-24T05:25:49.289Z,81.55
2018-07-24T05:26:49.262Z,81.16
2018-07-24T05:27:49.270Z,81.84
2018-07-24T05:28:49.273Z,80.43
2018-07-24T05:29:49.270Z,80.14
2018-07-24T05:30:49.269Z,80.43
2018-07-24T05:31:49.269Z,80.82
2018-07-24T05:32:49.275Z,79.66
2018-07-24T05:33:50.232Z,79.70
2018-07-24T05:34:49.266Z,78.73
2018-07-24T05:35:49.269Z,78.15
2018-07-24T05:36:49.276Z,77.28
2018-07-24T05:37:49.297Z,77.13
2018-07-24T05:38:49.319Z,77.28
2018-07-24T05:39:49.279Z,76.93
2018-07-24T05:40:49.283Z,76.74
2018-07-24T05:41:49.275Z,75.87
2018-07-24T05:42:49.279Z,75.39
2018-07-24T05:43:49.280Z,74.94
2018-07-24T05:44:49.279Z,73.88
2018-07-24T05:45:49.288Z,73.78
2018-07-24T05:46:49.285Z,73.39
2018-07-24T05:47:49.284Z,72.66
2018-07-24T05:48:49.313Z,71.98
2018-07-24T05:49:49.286Z,71.44
2018-07-24T05:50:49.291Z,70.08
2018-07-24T05:51:49.291Z,69.24
2018-07-24T05:52:49.295Z,69.34
2018-07-24T05:53:49.293Z,69.63
2018-07-24T05:54:49.302Z,69.53
2018-07-24T05:55:49.304Z,68.95
2018-07-24T05:56:49.299Z,68.76
2018-07-24T05:57:49.319Z,68.56
2018-07-24T05:58:49.319Z,68.95
2018-07-24T05:59:49.311Z,68.37
2018-07-24T06:00:49.330Z,68.76
2018-07-24T06:01:49.316Z,69.15
2018-07-24T06:02:49.317Z,68.60
2018-07-24T06:03:49.316Z,68.02
2018-07-24T06:04:49.324Z,67.72
2018-07-24T06:05:49.327Z,67.18
2018-07-24T06:06:49.331Z,67.08
2018-07-24T06:07:49.336Z,66.02
2018-07-24T06:08:49.341Z,66.24
2018-07-24T06:09:49.346Z,65.17
2018-07-24T06:10:49.343Z,65.75
2018-07-24T06:11:49.345Z,65.75
2018-07-24T06:12:49.347Z,65.79
2018-07-24T06:13:49.359Z,64.53
2018-07-24T06:14:49.359Z,64.14
2018-07-24T06:15:49.364Z,63.20
2018-07-24T06:16:49.398Z,62.71
2018-07-24T06:17:49.366Z,61.65
2018-07-24T06:18:49.371Z,62.26
2018-07-24T06:19:49.382Z,62.26
2018-07-24T06:20:49.379Z,61.68
2018-07-24T06:21:49.407Z,61.68
2018-07-24T06:22:49.385Z,60.41
2018-07-24T06:23:49.390Z,60.61
2018-07-24T06:24:49.396Z,61.61
2018-07-24T06:25:49.400Z,61.12
2018-07-24T06:26:49.401Z,61.09
2018-07-24T06:27:49.418Z,61.00
2018-07-24T06:28:49.416Z,61.51
2018-07-24T06:29:49.423Z,60.41
2018-07-24T06:30:49.423Z,60.64
2018-07-24T06:31:49.425Z,59.67
2018-07-24T06:32:49.431Z,60.83
2018-07-24T06:33:49.434Z,60.44
2018-07-24T06:34:49.439Z,60.64
2018-07-24T06:35:49.445Z,60.57
2018-07-24T06:36:49.451Z,60.18
2018-07-24T06:37:49.451Z,59.14
2018-07-24T06:38:49.460Z,58.56
2018-07-24T06:39:49.465Z,58.39
2018-07-24T06:40:49.468Z,57.42
2018-07-24T06:41:49.478Z,56.45
2018-07-24T06:42:49.476Z,56.18
2018-07-24T06:43:49.490Z,56.67
2018-07-24T06:44:49.497Z,55.99
2018-07-24T06:45:49.496Z,55.99
2018-07-24T06:46:49.496Z,55.60
2018-07-24T06:47:49.505Z,55.69
2018-07-24T06:48:49.505Z,55.62
2018-07-24T06:49:49.514Z,54.75
2018-07-24T06:50:49.529Z,54.65
2018-07-24T06:51:49.573Z,54.06
2018-07-24T06:52:49.533Z,54.36
2018-07-24T06:53:49.536Z,54.75
2018-07-24T06:54:49.545Z,53.48
2018-07-24T06:55:49.547Z,55.23
2018-07-24T06:56:49.558Z,55.62
2018-07-24T06:57:49.559Z,55.62
2018-07-24T06:58:49.570Z,54.46
2018-07-24T06:59:49.576Z,54.09
2018-07-24T07:00:49.583Z,52.95
2018-07-24T07:01:49.590Z,51.61
2018-07-24T07:02:49.602Z,51.31
2018-07-24T07:03:50.294Z,51.51
2018-07-24T07:04:49.605Z,50.34
2018-07-24T07:05:49.613Z,50.04
2018-07-24T07:06:49.619Z,51.39
2018-07-24T07:07:49.620Z,52.17
2018-07-24T07:08:49.623Z,51.65
2018-07-24T07:09:49.629Z,50.97
2018-07-24T07:10:49.642Z,51.34
2018-07-24T07:11:49.648Z,51.24
2018-07-24T07:12:50.307Z,50.75
2018-07-24T07:13:50.304Z,52.22
2018-07-24T07:14:49.666Z,52.80
2018-07-24T07:15:49.678Z,53.50
2018-07-24T07:16:49.678Z,52.04
2018-07-24T07:17:49.693Z,51.17
2018-07-24T07:18:49.694Z,52.07
2018-07-24T07:19:49.710Z,50.43
2018-07-24T07:20:49.708Z,49.78
2018-07-24T07:21:49.713Z,49.19
2018-07-24T07:22:49.730Z,49.80
2018-07-24T07:23:49.729Z,50.20
2018-07-24T07:24:50.309Z,49.22
2018-07-24T07:25:51.323Z,47.77
2018-07-24T07:26:49.744Z,46.36
2018-07-24T07:27:49.752Z,45.86
2018-07-24T07:28:49.765Z,45.37
2018-07-24T07:29:49.776Z,45.59
2018-07-24T07:30:49.779Z,45.50
2018-07-24T07:31:49.794Z,44.71
2018-07-24T07:32:49.818Z,44.81
2018-07-24T07:33:49.838Z,44.81
2018-07-24T07:34:49.810Z,44.15
2018-07-24T07:35:49.822Z,43.38
2018-07-24T07:36:49.827Z,42.31
2018-07-24T07:37:49.834Z,42.60
2018-07-24T07:38:49.847Z,42.41
2018-07-24T07:39:49.846Z,43.58
2018-07-24T07:40:49.853Z,44.27
2018-07-24T07:41:49.862Z,44.27
2018-07-24T07:42:49.866Z,44.95
2018-07-24T07:43:49.882Z,43.31
2018-07-24T07:44:49.885Z,42.15
2018-07-24T07:45:49.890Z,41.88
2018-07-24T07:46:49.909Z,41.58
2018-07-24T07:47:49.917Z,40.92
2018-07-24T07:48:49.950Z,39.94
2018-07-24T07:49:49.927Z,39.64
2018-07-24T07:50:49.966Z,39.82
2018-07-24T07:51:49.944Z,41.37
2018-07-24T07:52:49.951Z,41.52
2018-07-24T07:53:49.968Z,41.97
2018-07-24T07:54:49.973Z,42.25
2018-07-24T07:55:49.988Z,44.09
2018-07-24T07:56:49.990Z,44.18
2018-07-24T07:57:50.009Z,44.09
2018-07-24T07:58:50.068Z,45.47
2018-07-24T07:59:50.013Z,42.38
2018-07-24T08:00:50.021Z,42.02
2018-07-24T08:01:50.034Z,40.98
2018-07-24T08:02:50.049Z,39.80
2018-07-24T08:03:50.051Z,39.82
2018-07-24T08:04:50.061Z,39.53
2018-07-24T08:05:50.084Z,39.54
2018-07-24T08:06:50.090Z,38.58
2018-07-24T08:07:50.091Z,37.62
2018-07-24T08:08:50.100Z,36.46
2018-07-24T08:09:50.102Z,37.16
2018-07-24T08:10:50.114Z,35.38
2018-07-24T08:11:50.121Z,37.34
2018-07-24T08:12:50.131Z,37.34
2018-07-24T08:13:50.152Z,37.54
2018-07-24T08:14:50.156Z,36.16
2018-07-24T08:15:50.167Z,34.92
2018-07-24T08:16:50.187Z,34.25
2018-07-24T08:17:50.180Z,34.25
2018-07-24T08:18:50.605Z,34.47
2018-07-24T08:19:50.223Z,36.63
2018-07-24T08:20:50.213Z,37.62
2018-07-24T08:21:50.221Z,37.03
2018-07-24T08:22:50.232Z,35.10
2018-07-24T08:23:50.246Z,35.02
2018-07-24T08:24:50.253Z,33.84
2018-07-24T08:25:50.261Z,34.54
2018-07-24T08:26:50.270Z,33.36
2018-07-24T08:27:50.317Z,33.48
2018-07-24T08:28:50.297Z,32.90
2018-07-24T08:29:50.306Z,32.52
2018-07-24T08:30:50.313Z,32.32
2018-07-24T08:31:50.335Z,31.06
2018-07-24T08:32:50.341Z,31.14
2018-07-24T08:33:50.345Z,32.03
2018-07-24T08:34:50.370Z,31.60
2018-07-24T08:35:50.363Z,33.26
2018-07-24T08:36:50.388Z,34.15
2018-07-24T08:37:50.382Z,33.74
2018-07-24T08:38:50.397Z,33.53
2018-07-24T08:39:50.403Z,34.38
2018-07-24T08:40:50.410Z,36.36
2018-07-24T08:41:50.421Z,37.16
2018-07-24T08:42:50.436Z,34.92
2018-07-24T08:43:50.462Z,33.56
2018-07-24T08:44:50.475Z,33.08
2018-07-24T08:45:50.472Z,32.21
2018-07-24T08:46:50.478Z,31.13
2018-07-24T08:47:50.489Z,31.63
2018-07-24T08:48:50.507Z,30.91
2018-07-24T08:49:50.510Z,32.10
2018-07-24T08:50:50.554Z,32.48
2018-07-24T08:51:50.536Z,33.17
2018-07-24T08:52:50.735Z,34.17
2018-07-24T08:53:50.820Z,33.18
2018-07-24T08:54:50.986Z,32.48
2018-07-24T08:55:50.603Z,33.26
2018-07-24T08:56:50.596Z,32.89
2018-07-24T08:57:50.618Z,32.13
2018-07-24T08:58:50.615Z,31.56
2018-07-24T08:59:50.627Z,30.38
2018-07-24T09:00:50.642Z,29.71
2018-07-24T09:01:50.656Z,29.52
2018-07-24T09:02:50.665Z,30.33
2018-07-24T09:03:50.705Z,29.44
2018-07-24T09:04:50.686Z,29.34
2018-07-24T09:05:50.713Z,29.24
2018-07-24T09:06:50.709Z,29.24
2018-07-24T09:07:50.723Z,28.74
2018-07-24T09:08:52.374Z,30.09
2018-07-24T09:09:50.744Z,29.74
2018-07-24T09:10:50.759Z,31.98
2018-07-24T09:11:50.770Z,30.87
2018-07-24T09:12:50.785Z,33.00
2018-07-24T09:13:50.796Z,32.59
2018-07-24T09:14:50.807Z,34.26
2018-07-24T09:15:50.822Z,33.97
2018-07-24T09:16:50.830Z,34.58
2018-07-24T09:17:50.846Z,34.28
2018-07-24T09:18:50.852Z,33.92
2018-07-24T09:19:50.871Z,32.76
2018-07-24T09:20:50.894Z,32.59
2018-07-24T09:21:50.891Z,32.01
2018-07-24T09:22:50.908Z,30.94
2018-07-24T09:23:50.922Z,31.67
2018-07-24T09:24:50.927Z,29.50
2018-07-24T09:25:50.948Z,29.89
2018-07-24T09:26:51.009Z,31.16
2018-07-24T09:27:50.970Z,29.41
2018-07-24T09:28:50.978Z,28.06
2018-07-24T09:29:50.992Z,27.49
2018-07-24T09:30:51.004Z,27.21
2018-07-24T09:31:51.015Z,26.82
2018-07-24T09:32:51.030Z,25.74
2018-07-24T09:33:51.047Z,25.05
2018-07-24T09:34:51.057Z,26.64
2018-07-24T09:35:51.080Z,26.13
2018-07-24T09:36:51.084Z,26.51
2018-07-24T09:37:51.117Z,27.39
2018-07-24T09:38:51.106Z,28.07
2018-07-24T09:39:51.123Z,28.17
2018-07-24T09:40:51.135Z,28.17
2018-07-24T09:41:51.151Z,27.49
2018-07-24T09:42:51.161Z,27.38
2018-07-24T09:43:51.177Z,28.27
2018-07-24T09:44:51.189Z,27.45
2018-07-24T09:45:51.262Z,28.02
2018-07-24T09:46:51.212Z,28.96
2018-07-24T09:47:51.248Z,31.52
2018-07-24T09:48:51.240Z,30.85
2018-07-24T09:49:51.258Z,30.66
2018-07-24T09:50:51.264Z,29.79
2018-07-24T09:51:51.301Z,28.91
2018-07-24T09:52:51.297Z,28.11
2018-07-24T09:53:51.309Z,27.73
2018-07-24T09:54:51.323Z,28.03
2018-07-24T09:55:51.336Z,27.36
2018-07-24T09:56:51.352Z,27.47
2018-07-24T09:57:51.362Z,27.47
2018-07-24T09:58:51.376Z,27.25
2018-07-24T09:59:51.388Z,28.03
2018-07-24T10:00:51.410Z,27.75
2018-07-24T10:01:51.418Z,28.13
2018-07-24T10:02:51.443Z,27.75
2018-07-24T10:03:51.445Z,27.39
2018-07-24T10:04:51.461Z,25.05
2018-07-24T10:05:51.476Z,24.97
2018-07-24T10:06:51.492Z,24.57
2018-07-24T10:07:51.521Z,24.48
2018-07-24T10:08:51.512Z,23.30
2018-07-24T10:09:51.539Z,23.80
2018-07-24T10:10:51.558Z,22.78
2018-07-24T10:11:51.561Z,24.35
2018-07-24T10:12:51.612Z,25.82
2018-07-24T10:13:51.587Z,25.61
2018-07-24T10:14:52.411Z,26.40
2018-07-24T10:15:51.608Z,27.77
2018-07-24T10:16:51.637Z,25.51
2018-07-24T10:17:51.638Z,25.43
2018-07-24T10:18:51.691Z,25.24
2018-07-24T10:19:51.691Z,24.85
2018-07-24T10:20:51.684Z,24.36
2018-07-24T10:21:51.699Z,25.34
2018-07-24T10:22:51.709Z,25.32
2018-07-24T10:23:51.726Z,26.38
2018-07-24T10:24:51.740Z,26.35
2018-07-24T10:25:51.756Z,28.23
2018-07-24T10:26:51.768Z,28.02
2018-07-24T10:27:51.785Z,27.84
2018-07-24T10:28:51.795Z,27.17
2018-07-24T10:29:51.843Z,26.98
2018-07-24T10:30:51.826Z,26.39
2018-07-24T10:31:51.856Z,26.60
2018-07-24T10:32:51.864Z,25.91
2018-07-24T10:33:51.883Z,26.02
2018-07-24T10:34:51.884Z,25.12
2018-07-24T10:35:51.920Z,25.29
2018-07-24T10:36:51.913Z,26.06
2018-07-24T10:37:51.926Z,26.62
2018-07-24T10:38:51.946Z,27.37
2018-07-24T10:39:51.971Z,28.02
2018-07-24T10:40:51.970Z,28.99
2018-07-24T10:41:51.992Z,30.74
2018-07-24T10:42:52.023Z,31.15
2018-07-24T10:43:52.018Z,28.91
2018-07-24T10:44:52.034Z,28.88
2018-07-24T10:45:52.051Z,29.55
2018-07-24T10:46:52.060Z,30.91
2018-07-24T10:47:52.086Z,30.90
2018-07-24T10:48:52.094Z,31.47
2018-07-24T10:49:52.103Z,32.06
2018-07-24T10:50:52.136Z,31.96
2018-07-24T10:51:52.152Z,33.25
2018-07-24T10:52:52.146Z,31.46
2018-07-24T10:53:52.157Z,28.66
2018-07-24T10:54:52.169Z,27.10
2018-07-24T10:55:52.186Z,27.44
2018-07-24T10:56:52.198Z,26.38
2018-07-24T10:57:52.208Z,26.08
2018-07-24T10:58:52.228Z,26.18
2018-07-24T10:59:52.239Z,25.39
2018-07-24T11:00:52.256Z,26.38
2018-07-24T11:01:52.267Z,26.19
2018-07-24T11:02:52.282Z,25.29
2018-07-24T11:03:52.296Z,26.54
2018-07-24T11:04:52.313Z,27.48
2018-07-24T11:05:52.320Z,28.66
2018-07-24T11:06:52.334Z,28.09
2018-07-24T11:07:52.365Z,27.39
2018-07-24T11:08:52.362Z,27.10
2018-07-24T11:09:52.374Z,28.38
2018-07-24T11:10:52.390Z,27.70
2018-07-24T11:11:52.402Z,27.31
2018-07-24T11:12:52.422Z,27.40
2018-07-24T11:13:52.429Z,27.89
2018-07-24T11:14:52.450Z,28.08
2018-07-24T11:15:52.458Z,28.06
2018-07-24T11:16:52.498Z,28.54
2018-07-24T11:17:52.502Z,30.52
2018-07-24T11:18:53.441Z,29.65
2018-07-24T11:19:52.517Z,29.38
2018-07-24T11:20:52.528Z,27.83
2018-07-24T11:21:52.568Z,25.61
2018-07-24T11:22:52.704Z,24.24
2018-07-24T11:23:52.572Z,24.01
2018-07-24T11:24:52.580Z,25.66
2018-07-24T11:25:52.605Z,26.03
2018-07-24T11:26:52.612Z,26.70
2018-07-24T11:27:52.625Z,27.78
2018-07-24T11:28:52.644Z,27.97
2018-07-24T11:29:52.652Z,28.06
2018-07-24T11:30:52.673Z,27.96
2018-07-24T11:31:52.681Z,28.16
2018-07-24T11:32:52.735Z,28.44
2018-07-24T11:33:52.726Z,28.03
2018-07-24T11:34:52.727Z,29.09
2018-07-24T11:35:52.861Z,30.53
2018-07-24T11:36:52.750Z,30.63
2018-07-24T11:37:52.760Z,31.12
2018-07-24T11:38:52.775Z,31.81
2018-07-24T11:39:52.788Z,30.84
2018-07-24T11:40:52.806Z,32.15
2018-07-24T11:41:52.817Z,29.62
2018-07-24T11:42:52.845Z,27.62
2018-07-24T11:43:52.849Z,25.98
2018-07-24T11:44:52.862Z,25.71
2018-07-24T11:45:52.870Z,25.23
2018-07-24T11:46:52.885Z,24.95
2018-07-24T11:47:52.902Z,23.56
2018-07-24T11:48:52.933Z,24.03
2018-07-24T11:49:52.947Z,24.44
2018-07-24T11:50:52.943Z,23.46
2018-07-24T11:51:52.969Z,23.57
2018-07-24T11:52:52.967Z,24.18
2018-07-24T11:53:52.982Z,23.29
2018-07-24T11:54:53.021Z,23.44
2018-07-24T11:55:53.011Z,25.05
2018-07-24T11:56:53.023Z,27.37
2018-07-24T11:57:53.035Z,27.84
2018-07-24T11:58:53.052Z,28.91
2018-07-24T11:59:53.061Z,28.99
2018-07-24T12:00:53.080Z,29.28
2018-07-24T12:01:53.090Z,30.27
2018-07-24T12:02:53.105Z,29.77
2018-07-24T12:03:53.114Z,30.77
2018-07-24T12:04:53.182Z,29.49
2018-07-24T12:05:53.142Z,29.97
2018-07-24T12:06:53.173Z,30.17
2018-07-24T12:07:53.185Z,30.56
2018-07-24T12:08:53.180Z,30.79
2018-07-24T12:09:53.193Z,28.86
2018-07-24T12:10:53.210Z,27.31
2018-07-24T12:11:53.269Z,27.33
2018-07-24T12:12:53.235Z,27.34
2018-07-24T12:13:53.249Z,27.64
2018-07-24T12:14:53.356Z,27.07
2018-07-24T12:15:53.281Z,26.08
2018-07-24T12:16:53.283Z,25.57
2018-07-24T12:17:53.299Z,25.84
2018-07-24T12:18:53.307Z,27.39
2018-07-24T12:19:53.328Z,28.36
2018-07-24T12:20:53.353Z,28.64
2018-07-24T12:21:53.353Z,29.02
2018-07-24T12:22:53.361Z,29.30
2018-07-24T12:23:53.383Z,29.59
2018-07-24T12:24:53.390Z,29.39
2018-07-24T12:25:53.406Z,29.31
2018-07-24T12:26:53.419Z,28.82
2018-07-24T12:27:53.430Z,29.21
2018-07-24T12:28:53.468Z,30.79
2018-07-24T12:29:53.460Z,29.41
2018-07-24T12:30:53.470Z,29.11
2018-07-24T12:31:53.484Z,29.30
2018-07-24T12:32:53.507Z,29.77
2018-07-24T12:33:53.507Z,30.95
2018-07-24T12:34:53.521Z,30.15
2018-07-24T12:35:53.541Z,30.55
2018-07-24T12:36:53.548Z,30.95
2018-07-24T12:37:53.561Z,29.97
2018-07-24T12:38:53.570Z,30.08
2018-07-24T12:39:53.589Z,29.79
2018-07-24T12:40:53.604Z,29.89
2018-07-24T12:41:53.615Z,29.59
2018-07-24T12:42:53.630Z,29.10
2018-07-24T12:43:53.640Z,29.48
2018-07-24T12:44:53.649Z,30.05
2018-07-24T12:45:53.673Z,30.74
2018-07-24T12:46:53.676Z,30.55
2018-07-24T12:47:53.689Z,30.95
2018-07-24T12:48:53.703Z,30.66
2018-07-24T12:50:01.861Z,30.76
2018-07-24T12:51:47.333Z,30.68
2018-07-24T12:52:48.224Z,30.49
2018-07-24T12:54:40.997Z,29.43